sensor_id;sensor_type;location;lat;lon;timestamp;pressure;altitude;pressure_sealevel;temperature;humidity
26711;BME280;18311;52.754;18.118;2023-02-13T00:01:04;102424.84;;;18.65;50.13
26711;BME280;18311;52.754;18.118;2023-02-13T00:03:37;102417.95;;;19.50;47.84
26711;BME280;18311;52.754;18.118;2023-02-13T00:06:13;102423.19;;;19.18;49.44
26711;BME280;18311;52.754;18.118;2023-02-13T00:08:46;102418.12;;;19.47;48.13
26711;BME280;18311;52.754;18.118;2023-02-13T00:11:20;102411.48;;;19.35;48.67
26711;BME280;18311;52.754;18.118;2023-02-13T00:13:52;102399.87;;;20.18;46.57
26711;BME280;18311;52.754;18.118;2023-02-13T00:16:25;102402.58;;;19.85;47.49
26711;BME280;18311;52.754;18.118;2023-02-13T00:19:00;102408.92;;;19.32;49.08
26711;BME280;18311;52.754;18.118;2023-02-13T00:21:34;102402.00;;;19.61;48.08
26711;BME280;18311;52.754;18.118;2023-02-13T00:24:08;102403.44;;;19.51;47.91
26711;BME280;18311;52.754;18.118;2023-02-13T00:26:45;102398.23;;;19.29;48.42
26711;BME280;18311;52.754;18.118;2023-02-13T00:29:15;102388.30;;;19.82;46.40
26711;BME280;18311;52.754;18.118;2023-02-13T00:31:46;102401.36;;;19.56;47.22
26711;BME280;18311;52.754;18.118;2023-02-13T00:34:18;102395.54;;;19.81;46.84
26711;BME280;18311;52.754;18.118;2023-02-13T00:36:49;102392.43;;;19.54;47.56
26711;BME280;18311;52.754;18.118;2023-02-13T00:39:20;102393.75;;;19.10;47.83
26711;BME280;18311;52.754;18.118;2023-02-13T00:41:51;102390.90;;;19.83;46.40
26711;BME280;18311;52.754;18.118;2023-02-13T00:44:21;102394.75;;;19.79;46.99
26711;BME280;18311;52.754;18.118;2023-02-13T00:46:52;102375.83;;;20.11;46.01
26711;BME280;18311;52.754;18.118;2023-02-13T00:49:26;102374.64;;;20.16;45.82
26711;BME280;18311;52.754;18.118;2023-02-13T00:51:57;102379.59;;;19.75;46.24
26711;BME280;18311;52.754;18.118;2023-02-13T00:54:27;102385.87;;;19.40;46.42
26711;BME280;18311;52.754;18.118;2023-02-13T00:56:58;102384.84;;;19.26;47.11
26711;BME280;18311;52.754;18.118;2023-02-13T00:59:28;102387.31;;;19.83;45.70
26711;BME280;18311;52.754;18.118;2023-02-13T01:01:59;102384.92;;;19.94;46.24
26711;BME280;18311;52.754;18.118;2023-02-13T01:04:31;102382.27;;;20.26;45.61
26711;BME280;18311;52.754;18.118;2023-02-13T01:07:01;102380.59;;;20.23;45.34
26711;BME280;18311;52.754;18.118;2023-02-13T01:09:32;102384.03;;;19.41;45.93
26711;BME280;18311;52.754;18.118;2023-02-13T01:12:02;102382.37;;;20.40;44.82
26711;BME280;18311;52.754;18.118;2023-02-13T01:14:33;102378.74;;;20.08;45.34
26711;BME280;18311;52.754;18.118;2023-02-13T01:17:04;102387.32;;;20.16;45.04
26711;BME280;18311;52.754;18.118;2023-02-13T01:19:35;102393.60;;;20.34;44.47
26711;BME280;18311;52.754;18.118;2023-02-13T01:22:07;102381.53;;;20.87;43.39
26711;BME280;18311;52.754;18.118;2023-02-13T01:24:38;102385.64;;;19.28;46.21
26711;BME280;18311;52.754;18.118;2023-02-13T01:27:09;102367.45;;;19.30;46.50
26711;BME280;18311;52.754;18.118;2023-02-13T01:29:40;102358.16;;;19.69;45.04
26711;BME280;18311;52.754;18.118;2023-02-13T01:32:11;102367.28;;;20.18;44.78
26711;BME280;18311;52.754;18.118;2023-02-13T01:34:41;102372.00;;;19.47;45.42
26711;BME280;18311;52.754;18.118;2023-02-13T01:37:12;102373.34;;;19.90;44.87
26711;BME280;18311;52.754;18.118;2023-02-13T01:39:43;102374.44;;;19.16;45.87
26711;BME280;18311;52.754;18.118;2023-02-13T01:42:16;102371.18;;;19.44;45.81
26711;BME280;18311;52.754;18.118;2023-02-13T01:44:50;102372.45;;;19.55;44.99
26711;BME280;18311;52.754;18.118;2023-02-13T01:47:41;102367.83;;;19.39;45.12
26711;BME280;18311;52.754;18.118;2023-02-13T01:50:27;102371.03;;;19.48;45.26
26711;BME280;18311;52.754;18.118;2023-02-13T01:52:58;102358.45;;;20.31;43.46
26711;BME280;18311;52.754;18.118;2023-02-13T01:55:29;102361.59;;;19.72;44.15
26711;BME280;18311;52.754;18.118;2023-02-13T01:58:06;102359.32;;;20.47;43.17
26711;BME280;18311;52.754;18.118;2023-02-13T02:00:37;102361.97;;;20.81;41.90
26711;BME280;18311;52.754;18.118;2023-02-13T02:03:12;102356.47;;;20.01;43.41
26711;BME280;18311;52.754;18.118;2023-02-13T02:05:42;102360.38;;;20.29;43.22
26711;BME280;18311;52.754;18.118;2023-02-13T02:08:15;102359.23;;;20.33;42.66
26711;BME280;18311;52.754;18.118;2023-02-13T02:10:46;102350.05;;;20.51;42.31
26711;BME280;18311;52.754;18.118;2023-02-13T02:13:19;102355.21;;;19.73;43.76
26711;BME280;18311;52.754;18.118;2023-02-13T02:15:50;102343.72;;;20.35;42.66
26711;BME280;18311;52.754;18.118;2023-02-13T02:18:22;102353.20;;;20.75;41.39
26711;BME280;18311;52.754;18.118;2023-02-13T02:24:18;102354.09;;;19.60;43.79
26711;BME280;18311;52.754;18.118;2023-02-13T02:43:54;102356.47;;;20.01;42.70
26711;BME280;18311;52.754;18.118;2023-02-13T02:46:30;102366.63;;;20.79;41.73
26711;BME280;18311;52.754;18.118;2023-02-13T02:49:12;102366.31;;;19.51;43.31
26711;BME280;18311;52.754;18.118;2023-02-13T02:52:15;102363.53;;;19.53;43.53
26711;BME280;18311;52.754;18.118;2023-02-13T02:54:53;102369.82;;;19.53;43.44
26711;BME280;18311;52.754;18.118;2023-02-13T02:57:48;102360.38;;;19.95;42.81
26711;BME280;18311;52.754;18.118;2023-02-13T03:00:35;102361.06;;;20.16;42.66
26711;BME280;18311;52.754;18.118;2023-02-13T03:03:25;102369.18;;;19.31;43.66
26711;BME280;18311;52.754;18.118;2023-02-13T03:09:09;102359.37;;;20.14;42.70
26711;BME280;18311;52.754;18.118;2023-02-13T03:11:58;102366.01;;;19.22;43.59
26711;BME280;18311;52.754;18.118;2023-02-13T03:14:47;102361.70;;;20.04;42.73
26711;BME280;18311;52.754;18.118;2023-02-13T03:17:18;102357.83;;;20.26;42.02
26711;BME280;18311;52.754;18.118;2023-02-13T03:20:25;102359.30;;;20.15;42.36
26711;BME280;18311;52.754;18.118;2023-02-13T03:24:01;102362.01;;;20.15;42.17
26711;BME280;18311;52.754;18.118;2023-02-13T03:28:35;102355.98;;;20.42;42.51
26711;BME280;18311;52.754;18.118;2023-02-13T03:31:43;102350.28;;;20.15;42.43
26711;BME280;18311;52.754;18.118;2023-02-13T03:34:12;102355.89;;;20.28;42.10
26711;BME280;18311;52.754;18.118;2023-02-13T03:37:02;102354.12;;;20.27;42.65
26711;BME280;18311;52.754;18.118;2023-02-13T03:40:06;102352.34;;;19.94;43.81
26711;BME280;18311;52.754;18.118;2023-02-13T03:42:44;102350.05;;;20.02;43.41
26711;BME280;18311;52.754;18.118;2023-02-13T03:45:27;102366.81;;;19.42;44.26
26711;BME280;18311;52.754;18.118;2023-02-13T03:48:13;102360.59;;;20.08;43.60
26711;BME280;18311;52.754;18.118;2023-02-13T03:51:02;102371.27;;;19.08;44.73
26711;BME280;18311;52.754;18.118;2023-02-13T03:53:36;102372.57;;;20.04;43.35
26711;BME280;18311;52.754;18.118;2023-02-13T03:56:08;102375.70;;;20.30;43.33
26711;BME280;18311;52.754;18.118;2023-02-13T03:59:00;102373.08;;;20.44;43.32
26711;BME280;18311;52.754;18.118;2023-02-13T04:01:53;102365.52;;;20.17;43.92
26711;BME280;18311;52.754;18.118;2023-02-13T04:04:28;102372.57;;;20.04;44.11
26711;BME280;18311;52.754;18.118;2023-02-13T04:07:01;102378.67;;;19.57;44.76
26711;BME280;18311;52.754;18.118;2023-02-13T04:09:35;102377.02;;;19.37;46.00
26711;BME280;18311;52.754;18.118;2023-02-13T04:12:20;102370.80;;;20.36;44.26
26711;BME280;18311;52.754;18.118;2023-02-13T04:15:17;102376.06;;;19.73;45.49
26711;BME280;18311;52.754;18.118;2023-02-13T04:18:02;102374.80;;;19.45;46.24
26711;BME280;18311;52.754;18.118;2023-02-13T04:20:31;102379.80;;;20.21;45.05
26711;BME280;18311;52.754;18.118;2023-02-13T04:23:07;102376.69;;;20.45;44.42
26711;BME280;18311;52.754;18.118;2023-02-13T04:25:40;102382.37;;;19.38;46.76
26711;BME280;18311;52.754;18.118;2023-02-13T04:28:12;102392.64;;;20.02;45.04
26711;BME280;18311;52.754;18.118;2023-02-13T04:30:42;102389.72;;;19.89;46.11
26711;BME280;18311;52.754;18.118;2023-02-13T04:33:13;102379.65;;;19.91;46.42
26711;BME280;18311;52.754;18.118;2023-02-13T04:35:44;102376.27;;;20.68;44.80
26711;BME280;18311;52.754;18.118;2023-02-13T04:38:15;102378.85;;;20.22;45.18
26711;BME280;18311;52.754;18.118;2023-02-13T04:40:46;102384.53;;;20.17;45.20
26711;BME280;18311;52.754;18.118;2023-02-13T04:43:17;102389.53;;;19.57;46.45
26711;BME280;18311;52.754;18.118;2023-02-13T04:45:50;102388.80;;;19.71;47.03
26711;BME280;18311;52.754;18.118;2023-02-13T04:48:21;102386.89;;;20.08;46.02
26711;BME280;18311;52.754;18.118;2023-02-13T04:50:52;102391.53;;;20.22;45.68
26711;BME280;18311;52.754;18.118;2023-02-13T04:53:24;102389.87;;;20.19;45.88
26711;BME280;18311;52.754;18.118;2023-02-13T04:55:54;102389.17;;;20.65;44.83
26711;BME280;18311;52.754;18.118;2023-02-13T04:58:25;102385.87;;;20.42;45.94
26711;BME280;18311;52.754;18.118;2023-02-13T05:00:57;102390.20;;;20.13;46.36
26711;BME280;18311;52.754;18.118;2023-02-13T05:03:28;102383.38;;;20.87;44.95
26711;BME280;18311;52.754;18.118;2023-02-13T05:05:59;102379.72;;;20.23;46.23
26711;BME280;18311;52.754;18.118;2023-02-13T05:08:30;102382.41;;;20.72;45.25
26711;BME280;18311;52.754;18.118;2023-02-13T05:11:00;102384.37;;;19.87;47.24
26711;BME280;18311;52.754;18.118;2023-02-13T05:13:31;102383.38;;;20.22;46.19
26711;BME280;18311;52.754;18.118;2023-02-13T05:16:03;102389.28;;;20.30;45.43
26711;BME280;18311;52.754;18.118;2023-02-13T05:18:34;102381.75;;;20.35;45.98
26711;BME280;18311;52.754;18.118;2023-02-13T05:21:05;102375.21;;;20.55;45.90
26711;BME280;18311;52.754;18.118;2023-02-13T05:23:54;102377.52;;;20.63;45.92
26711;BME280;18311;52.754;18.118;2023-02-13T05:26:24;102377.48;;;20.94;45.00
26711;BME280;18311;52.754;18.118;2023-02-13T05:28:55;102384.64;;;20.48;45.64
26711;BME280;18311;52.754;18.118;2023-02-13T05:31:47;102374.47;;;20.35;45.88
26711;BME280;18311;52.754;18.118;2023-02-13T05:34:19;102384.98;;;20.26;46.09
26711;BME280;18311;52.754;18.118;2023-02-13T05:36:51;102381.23;;;20.44;46.54
26711;BME280;18311;52.754;18.118;2023-02-13T05:39:22;102382.75;;;20.50;45.77
26711;BME280;18311;52.754;18.118;2023-02-13T05:41:52;102376.38;;;20.17;46.86
26711;BME280;18311;52.754;18.118;2023-02-13T05:44:24;102381.65;;;20.21;46.17
26711;BME280;18311;52.754;18.118;2023-02-13T05:46:54;102383.66;;;19.84;47.07
26711;BME280;18311;52.754;18.118;2023-02-13T05:49:25;102384.49;;;20.02;46.90
26711;BME280;18311;52.754;18.118;2023-02-13T05:51:56;102388.55;;;20.10;46.41
26711;BME280;18311;52.754;18.118;2023-02-13T05:54:26;102388.22;;;20.66;45.75
26711;BME280;18311;52.754;18.118;2023-02-13T05:56:58;102389.63;;;19.73;47.24
26711;BME280;18311;52.754;18.118;2023-02-13T05:59:29;102380.66;;;20.22;46.27
26711;BME280;18311;52.754;18.118;2023-02-13T06:02:01;102382.95;;;20.63;45.29
26711;BME280;18311;52.754;18.118;2023-02-13T06:04:31;102388.19;;;19.83;46.86
26711;BME280;18311;52.754;18.118;2023-02-13T06:07:02;102386.02;;;19.72;47.92
26711;BME280;18311;52.754;18.118;2023-02-13T06:09:33;102389.00;;;19.85;46.88
26711;BME280;18311;52.754;18.118;2023-02-13T06:12:04;102390.28;;;20.45;46.20
26711;BME280;18311;52.754;18.118;2023-02-13T06:14:35;102390.66;;;20.21;46.86
26711;BME280;18311;52.754;18.118;2023-02-13T06:17:06;102394.98;;;20.25;46.33
26711;BME280;18311;52.754;18.118;2023-02-13T06:19:36;102405.58;;;19.96;47.34
26711;BME280;18311;52.754;18.118;2023-02-13T06:22:07;102399.55;;;20.41;45.87
26711;BME280;18311;52.754;18.118;2023-02-13T06:24:37;102397.34;;;20.31;45.46
26711;BME280;18311;52.754;18.118;2023-02-13T06:27:08;102407.50;;;19.59;47.71
26711;BME280;18311;52.754;18.118;2023-02-13T06:29:38;102410.38;;;19.91;46.90
26711;BME280;18311;52.754;18.118;2023-02-13T06:32:09;102395.94;;;19.91;45.77
26711;BME280;18311;52.754;18.118;2023-02-13T06:34:39;102400.25;;;20.44;45.51
26711;BME280;18311;52.754;18.118;2023-02-13T06:37:11;102397.01;;;20.04;45.42
26711;BME280;18311;52.754;18.118;2023-02-13T06:39:42;102393.41;;;20.37;45.00
26711;BME280;18311;52.754;18.118;2023-02-13T06:42:12;102398.27;;;20.14;44.88
26711;BME280;18311;52.754;18.118;2023-02-13T06:44:43;102398.59;;;20.42;44.21
26711;BME280;18311;52.754;18.118;2023-02-13T06:47:14;102410.94;;;19.46;45.65
26711;BME280;18311;52.754;18.118;2023-02-13T06:49:44;102406.22;;;20.02;44.27
26711;BME280;18311;52.754;18.118;2023-02-13T06:52:16;102411.99;;;20.29;44.28
26711;BME280;18311;52.754;18.118;2023-02-13T06:54:48;102411.09;;;20.28;44.17
26711;BME280;18311;52.754;18.118;2023-02-13T06:57:18;102415.50;;;20.31;43.85
26711;BME280;18311;52.754;18.118;2023-02-13T06:59:49;102410.40;;;19.74;45.36
26711;BME280;18311;52.754;18.118;2023-02-13T07:02:19;102416.02;;;20.04;44.75
26711;BME280;18311;52.754;18.118;2023-02-13T07:04:50;102409.66;;;19.53;46.26
26711;BME280;18311;52.754;18.118;2023-02-13T07:07:21;102405.81;;;20.59;43.85
26711;BME280;18311;52.754;18.118;2023-02-13T07:09:53;102413.86;;;20.11;44.16
26711;BME280;18311;52.754;18.118;2023-02-13T07:12:25;102399.09;;;20.82;43.44
26711;BME280;18311;52.754;18.118;2023-02-13T07:14:55;102398.76;;;20.38;43.42
26711;BME280;18311;52.754;18.118;2023-02-13T07:17:26;102407.70;;;20.56;43.70
26711;BME280;18311;52.754;18.118;2023-02-13T07:19:56;102412.43;;;20.86;42.45
26711;BME280;18311;52.754;18.118;2023-02-13T07:22:29;102406.98;;;20.86;42.29
26711;BME280;18311;52.754;18.118;2023-02-13T07:25:00;102418.22;;;20.31;43.33
26711;BME280;18311;52.754;18.118;2023-02-13T07:27:30;102416.09;;;20.20;43.61
26711;BME280;18311;52.754;18.118;2023-02-13T07:30:01;102408.69;;;20.55;43.01
26711;BME280;18311;52.754;18.118;2023-02-13T07:32:32;102407.46;;;20.61;42.30
26711;BME280;18311;52.754;18.118;2023-02-13T07:35:03;102407.20;;;20.50;42.68
26711;BME280;18311;52.754;18.118;2023-02-13T07:37:34;102413.53;;;20.98;41.56
26711;BME280;18311;52.754;18.118;2023-02-13T07:40:05;102414.36;;;20.35;42.86
26711;BME280;18311;52.754;18.118;2023-02-13T07:42:37;102420.95;;;20.47;42.30
26711;BME280;18311;52.754;18.118;2023-02-13T07:45:08;102417.95;;;20.69;41.97
26711;BME280;18311;52.754;18.118;2023-02-13T07:47:41;102419.77;;;20.68;41.97
26711;BME280;18311;52.754;18.118;2023-02-13T07:50:12;102411.45;;;20.22;42.46
26711;BME280;18311;52.754;18.118;2023-02-13T07:52:43;102408.81;;;20.21;42.73
26711;BME280;18311;52.754;18.118;2023-02-13T07:55:15;102411.28;;;20.25;41.97
26711;BME280;18311;52.754;18.118;2023-02-13T07:57:45;102404.98;;;20.56;42.10
26711;BME280;18311;52.754;18.118;2023-02-13T08:00:17;102398.49;;;20.27;42.47
26711;BME280;18311;52.754;18.118;2023-02-13T08:02:49;102413.00;;;19.40;43.83
26711;BME280;18311;52.754;18.118;2023-02-13T08:05:19;102412.50;;;21.01;41.22
26711;BME280;18311;52.754;18.118;2023-02-13T08:07:51;102410.92;;;19.28;44.21
26711;BME280;18311;52.754;18.118;2023-02-13T08:10:21;102405.99;;;19.71;43.26
26711;BME280;18311;52.754;18.118;2023-02-13T08:13:12;102410.19;;;20.12;43.04
26711;BME280;18311;52.754;18.118;2023-02-13T08:15:43;102410.46;;;19.90;43.08
26711;BME280;18311;52.754;18.118;2023-02-13T08:18:15;102407.23;;;19.12;44.02
26711;BME280;18311;52.754;18.118;2023-02-13T08:20:49;102406.29;;;19.30;44.43
26711;BME280;18311;52.754;18.118;2023-02-13T08:23:22;102398.26;;;18.54;45.50
26711;BME280;18311;52.754;18.118;2023-02-13T08:25:54;102395.89;;;19.03;45.11
26711;BME280;18311;52.754;18.118;2023-02-13T08:28:26;102394.09;;;18.47;46.00
26711;BME280;18311;52.754;18.118;2023-02-13T08:30:57;102383.31;;;19.55;44.30
26711;BME280;18311;52.754;18.118;2023-02-13T08:33:29;102388.70;;;19.02;45.34
26711;BME280;18311;52.754;18.118;2023-02-13T08:36:02;102387.85;;;19.19;44.99
26711;BME280;18311;52.754;18.118;2023-02-13T08:38:33;102388.97;;;20.03;43.48
26711;BME280;18311;52.754;18.118;2023-02-13T08:41:04;102390.08;;;19.98;43.14
26711;BME280;18311;52.754;18.118;2023-02-13T08:43:34;102386.37;;;20.17;43.11
26711;BME280;18311;52.754;18.118;2023-02-13T08:46:05;102389.30;;;20.46;42.44
26711;BME280;18311;52.754;18.118;2023-02-13T08:48:36;102384.37;;;19.87;43.28
26711;BME280;18311;52.754;18.118;2023-02-13T08:51:08;102388.73;;;19.90;43.72
26711;BME280;18311;52.754;18.118;2023-02-13T08:53:40;102389.83;;;20.52;42.29
26711;BME280;18311;52.754;18.118;2023-02-13T08:56:11;102380.88;;;20.34;43.00
26711;BME280;18311;52.754;18.118;2023-02-13T08:58:42;102375.97;;;19.57;44.38
26711;BME280;18311;52.754;18.118;2023-02-13T09:01:14;102385.55;;;20.96;41.57
26711;BME280;18311;52.754;18.118;2023-02-13T09:03:45;102379.55;;;20.26;42.43
26711;BME280;18311;52.754;18.118;2023-02-13T09:06:15;102379.87;;;19.16;44.03
26711;BME280;18311;52.754;18.118;2023-02-13T09:08:46;102386.44;;;19.47;44.68
26711;BME280;18311;52.754;18.118;2023-02-13T09:11:16;102366.22;;;19.70;43.29
26711;BME280;18311;52.754;18.118;2023-02-13T09:13:52;102373.19;;;20.59;42.03
26711;BME280;18311;52.754;18.118;2023-02-13T09:16:25;102375.95;;;19.22;43.70
26711;BME280;18311;52.754;18.118;2023-02-13T09:18:55;102373.42;;;19.71;43.45
26711;BME280;18311;52.754;18.118;2023-02-13T09:21:26;102361.50;;;20.56;41.72
26711;BME280;18311;52.754;18.118;2023-02-13T09:23:57;102365.36;;;19.87;42.59
26711;BME280;18311;52.754;18.118;2023-02-13T09:26:27;102371.36;;;19.59;43.56
26711;BME280;18311;52.754;18.118;2023-02-13T09:28:58;102363.13;;;19.78;43.60
26711;BME280;18311;52.754;18.118;2023-02-13T09:31:28;102369.59;;;19.40;43.65
26711;BME280;18311;52.754;18.118;2023-02-13T09:33:59;102367.02;;;19.72;43.46
26711;BME280;18311;52.754;18.118;2023-02-13T09:36:30;102369.89;;;19.69;42.99
26711;BME280;18311;52.754;18.118;2023-02-13T09:39:01;102375.91;;;20.09;42.25
26711;BME280;18311;52.754;18.118;2023-02-13T09:41:38;102368.39;;;19.46;42.96
26711;BME280;18311;52.754;18.118;2023-02-13T09:44:22;102362.89;;;20.32;41.45
26711;BME280;18311;52.754;18.118;2023-02-13T09:47:15;102369.10;;;20.67;40.89
26711;BME280;18311;52.754;18.118;2023-02-13T09:49:55;102382.45;;;20.38;41.33
26711;BME280;18311;52.754;18.118;2023-02-13T09:52:27;102384.14;;;20.41;41.04
26711;BME280;18311;52.754;18.118;2023-02-13T09:54:59;102372.13;;;20.93;40.38
26711;BME280;18311;52.754;18.118;2023-02-13T09:57:35;102388.09;;;19.67;42.10
26711;BME280;18311;52.754;18.118;2023-02-13T10:00:16;102383.19;;;20.09;41.48
26711;BME280;18311;52.754;18.118;2023-02-13T10:03:01;102387.59;;;20.11;41.20
26711;BME280;18311;52.754;18.118;2023-02-13T10:11:44;102369.31;;;20.31;41.26
26711;BME280;18311;52.754;18.118;2023-02-13T10:14:18;102367.60;;;20.12;41.21
26711;BME280;18311;52.754;18.118;2023-02-13T10:16:52;102370.32;;;20.12;41.18
26711;BME280;18311;52.754;18.118;2023-02-13T10:19:44;102362.81;;;19.49;41.67
26711;BME280;18311;52.754;18.118;2023-02-13T10:22:25;102369.27;;;20.64;40.57
26711;BME280;18311;52.754;18.118;2023-02-13T10:24:58;102373.11;;;20.60;40.38
26711;BME280;18311;52.754;18.118;2023-02-13T10:30:20;102381.84;;;20.49;40.47
26711;BME280;18311;52.754;18.118;2023-02-13T10:33:19;102379.25;;;19.81;41.34
26711;BME280;18311;52.754;18.118;2023-02-13T10:39:00;102359.23;;;20.49;40.77
26711;BME280;18311;52.754;18.118;2023-02-13T10:41:40;102359.37;;;20.14;41.21
26711;BME280;18311;52.754;18.118;2023-02-13T10:44:26;102360.02;;;19.51;42.00
26711;BME280;18311;52.754;18.118;2023-02-13T10:47:22;102358.03;;;20.70;40.59
26711;BME280;18311;52.754;18.118;2023-02-13T10:58:11;102364.99;;;20.27;41.50
26711;BME280;18311;52.754;18.118;2023-02-13T11:00:50;102373.96;;;20.29;40.74
26711;BME280;18311;52.754;18.118;2023-02-13T11:03:24;102373.96;;;20.29;40.74
26711;BME280;18311;52.754;18.118;2023-02-13T11:05:57;102355.52;;;20.67;40.41
26711;BME280;18311;52.754;18.118;2023-02-13T11:08:33;102353.09;;;20.93;39.98
26711;BME280;18311;52.754;18.118;2023-02-13T11:17:02;102357.41;;;20.97;40.04
26711;BME280;18311;52.754;18.118;2023-02-13T11:19:39;102353.45;;;19.90;41.69
26711;BME280;18311;52.754;18.118;2023-02-13T11:22:12;102364.27;;;20.07;41.51
26711;BME280;18311;52.754;18.118;2023-02-13T11:24:55;102331.54;;;20.74;39.59
26711;BME280;18311;52.754;18.118;2023-02-13T11:27:21;102331.54;;;20.74;39.59
26711;BME280;18311;52.754;18.118;2023-02-13T11:29:53;102355.77;;;20.63;40.35
26711;BME280;18311;52.754;18.118;2023-02-13T11:32:26;102334.53;;;21.16;39.24
26711;BME280;18311;52.754;18.118;2023-02-13T11:34:58;102334.53;;;21.16;39.24
26711;BME280;18311;52.754;18.118;2023-02-13T11:37:31;102350.08;;;21.13;39.72
26711;BME280;18311;52.754;18.118;2023-02-13T11:40:20;102345.93;;;21.53;39.04
26711;BME280;18311;52.754;18.118;2023-02-13T11:42:35;102326.34;;;20.22;41.15
26711;BME280;18311;52.754;18.118;2023-02-13T11:45:25;102326.34;;;20.22;41.15
26711;BME280;18311;52.754;18.118;2023-02-13T11:47:53;102326.73;;;20.63;40.55
26711;BME280;18311;52.754;18.118;2023-02-13T11:50:32;102563.98;;;21.94;38.49
26711;BME280;18311;52.754;18.118;2023-02-13T11:53:06;102321.73;;;20.46;40.88
26711;BME280;18311;52.754;18.118;2023-02-13T11:55:38;102321.73;;;21.48;39.23
26711;BME280;18311;52.754;18.118;2023-02-13T12:00:47;102324.38;;;20.53;39.88
26711;BME280;18311;52.754;18.118;2023-02-13T12:03:27;102324.38;;;20.73;39.89
26711;BME280;18311;52.754;18.118;2023-02-13T12:06:14;102344.07;;;20.92;39.32
26711;BME280;18311;52.754;18.118;2023-02-13T12:08:49;102344.07;;;20.92;39.32
26711;BME280;18311;52.754;18.118;2023-02-13T12:14:17;102345.09;;;19.77;40.80
26711;BME280;18311;52.754;18.118;2023-02-13T12:16:44;102345.09;;;19.77;40.80
26711;BME280;18311;52.754;18.118;2023-02-13T12:19:22;102342.31;;;20.60;39.76
26711;BME280;18311;52.754;18.118;2023-02-13T12:30:08;102321.03;;;19.69;41.40
26711;BME280;18311;52.754;18.118;2023-02-13T12:32:50;102316.32;;;21.02;39.61
26711;BME280;18311;52.754;18.118;2023-02-13T12:41:21;102283.55;;;19.60;41.40
26711;BME280;18311;52.754;18.118;2023-02-13T12:44:32;102265.60;;;20.70;39.50
26711;BME280;18311;52.754;18.118;2023-02-13T12:46:57;102286.29;;;20.09;41.08
26711;BME280;18311;52.754;18.118;2023-02-13T12:52:29;102279.08;;;19.76;41.20
26711;BME280;18311;52.754;18.118;2023-02-13T12:57:41;102275.45;;;19.08;41.56
26711;BME280;18311;52.754;18.118;2023-02-13T13:00:39;102270.52;;;20.18;40.73
26711;BME280;18311;52.754;18.118;2023-02-13T13:05:53;102279.21;;;19.73;41.17
26711;BME280;18311;52.754;18.118;2023-02-13T13:08:55;102273.84;;;20.85;39.23
26711;BME280;18311;52.754;18.118;2023-02-13T13:11:51;102280.89;;;20.41;39.62
26711;BME280;18311;52.754;18.118;2023-02-13T13:14:40;102287.60;;;20.02;40.89
26711;BME280;18311;52.754;18.118;2023-02-13T13:17:18;102288.92;;;20.11;40.11
26711;BME280;18311;52.754;18.118;2023-02-13T13:28:07;102275.34;;;21.05;38.70
26711;BME280;18311;52.754;18.118;2023-02-13T13:30:38;102282.46;;;20.13;39.60
26711;BME280;18311;52.754;18.118;2023-02-13T13:36:08;102267.31;;;20.25;40.02
26711;BME280;18311;52.754;18.118;2023-02-13T13:44:39;102271.38;;;21.10;38.43
26711;BME280;18311;52.754;18.118;2023-02-13T13:47:36;102268.78;;;20.65;39.05
26711;BME280;18311;52.754;18.118;2023-02-13T13:50:03;102268.78;;;20.63;39.25
26711;BME280;18311;52.754;18.118;2023-02-13T13:52:36;102283.89;;;20.99;38.59
26711;BME280;18311;52.754;18.118;2023-02-13T13:55:09;102272.20;;;20.03;39.71
26711;BME280;18311;52.754;18.118;2023-02-13T13:57:57;102273.76;;;20.70;38.77
26711;BME280;18311;52.754;18.118;2023-02-13T14:05:31;102268.08;;;20.43;39.40
26711;BME280;18311;52.754;18.118;2023-02-13T14:10:59;102285.58;;;20.85;38.37
26711;BME280;18311;52.754;18.118;2023-02-13T14:13:09;102281.13;;;20.52;39.12
26711;BME280;18311;52.754;18.118;2023-02-13T14:18:18;102272.91;;;20.22;38.89
26711;BME280;18311;52.754;18.118;2023-02-13T14:20:51;102290.88;;;20.72;39.05
26711;BME280;18311;52.754;18.118;2023-02-13T14:23:36;102287.87;;;20.77;38.53
26711;BME280;18311;52.754;18.118;2023-02-13T14:31:28;102300.41;;;20.32;39.49
26711;BME280;18311;52.754;18.118;2023-02-13T14:36:59;102306.91;;;20.13;39.36
26711;BME280;18311;52.754;18.118;2023-02-13T14:39:31;102305.08;;;20.78;38.67
26711;BME280;18311;52.754;18.118;2023-02-13T14:41:59;102294.90;;;20.65;38.79
26711;BME280;18311;52.754;18.118;2023-02-13T14:44:35;102288.98;;;21.19;37.94
26711;BME280;18311;52.754;18.118;2023-02-13T14:47:17;102289.38;;;20.67;38.17
26711;BME280;18311;52.754;18.118;2023-02-13T14:49:43;102290.67;;;20.60;38.77
26711;BME280;18311;52.754;18.118;2023-02-13T14:52:27;102288.10;;;19.59;39.88
26711;BME280;18311;52.754;18.118;2023-02-13T14:55:03;102288.10;;;19.59;39.88
26711;BME280;18311;52.754;18.118;2023-02-13T14:57:43;102276.55;;;21.15;37.37
26711;BME280;18311;52.754;18.118;2023-02-13T15:00:26;102279.05;;;21.04;37.57
26711;BME280;18311;52.754;18.118;2023-02-13T15:03:07;102278.00;;;21.21;36.91
26711;BME280;18311;52.754;18.118;2023-02-13T15:05:36;102268.95;;;21.06;37.04
26711;BME280;18311;52.754;18.118;2023-02-13T15:08:13;102269.93;;;21.19;37.22
26711;BME280;18311;52.754;18.118;2023-02-13T15:10:47;102261.77;;;21.64;36.40
26711;BME280;18311;52.754;18.118;2023-02-13T15:13:23;102265.55;;;21.02;37.28
26711;BME280;18311;52.754;18.118;2023-02-13T15:16:07;102266.92;;;21.09;37.01